sensor_id;sensor_type;location;lat;lon;timestamp;pressure;altitude;pressure_sealevel;temperature;humidity
70909;BME280;58554;52.006;5.926;2024-02-21T00:00:35;101335.31;;;8.45;83.70
70909;BME280;58554;52.006;5.926;2024-02-21T00:03:02;101329.97;;;8.47;83.75
70909;BME280;58554;52.006;5.926;2024-02-21T00:05:29;101323.84;;;8.46;83.76
70909;BME280;58554;52.006;5.926;2024-02-21T00:07:57;101316.84;;;8.45;83.63
70909;BME280;58554;52.006;5.926;2024-02-21T00:10:25;101322.13;;;8.45;83.79
70909;BME280;58554;52.006;5.926;2024-02-21T00:12:51;101316.84;;;8.45;83.88
70909;BME280;58554;52.006;5.926;2024-02-21T00:15:18;101315.16;;;8.44;83.79
70909;BME280;58554;52.006;5.926;2024-02-21T00:17:47;101322.03;;;8.48;83.85
70909;BME280;58554;52.006;5.926;2024-02-21T00:20:14;101316.56;;;8.53;83.96
70909;BME280;58554;52.006;5.926;2024-02-21T00:22:40;101321.63;;;8.58;83.74
70909;BME280;58554;52.006;5.926;2024-02-21T00:25:07;101310.06;;;8.62;83.68
70909;BME280;58554;52.006;5.926;2024-02-21T00:27:34;101299.50;;;8.62;83.49
70909;BME280;58554;52.006;5.926;2024-02-21T00:30:01;101307.47;;;8.60;83.65
70909;BME280;58554;52.006;5.926;2024-02-21T00:32:28;101302.34;;;8.57;83.40
70909;BME280;58554;52.006;5.926;2024-02-21T00:34:57;101295.41;;;8.55;83.61
70909;BME280;58554;52.006;5.926;2024-02-21T00:37:23;101296.31;;;8.53;83.55
70909;BME280;58554;52.006;5.926;2024-02-21T00:39:50;101278.81;;;8.52;83.75
70909;BME280;58554;52.006;5.926;2024-02-21T00:42:16;101296.47;;;8.50;83.56
70909;BME280;58554;52.006;5.926;2024-02-21T00:44:44;101285.97;;;8.49;83.81
70909;BME280;58554;52.006;5.926;2024-02-21T00:47:10;101285.13;;;8.48;83.83
70909;BME280;58554;52.006;5.926;2024-02-21T00:49:37;101278.13;;;8.47;83.76
70909;BME280;58554;52.006;5.926;2024-02-21T00:52:06;101271.19;;;8.45;83.74
70909;BME280;58554;52.006;5.926;2024-02-21T00:54:33;101267.72;;;8.44;83.91
70909;BME280;58554;52.006;5.926;2024-02-21T00:56:59;101272.13;;;8.44;84.01
70909;BME280;58554;52.006;5.926;2024-02-21T00:59:26;101255.44;;;8.43;83.73
70909;BME280;58554;52.006;5.926;2024-02-21T01:01:52;101252.88;;;8.42;83.89
70909;BME280;58554;52.006;5.926;2024-02-21T01:04:19;101245.03;;;8.40;83.86
70909;BME280;58554;52.006;5.926;2024-02-21T01:06:45;101249.47;;;8.40;84.07
70909;BME280;58554;52.006;5.926;2024-02-21T01:09:14;101257.38;;;8.40;83.99
70909;BME280;58554;52.006;5.926;2024-02-21T01:11:41;101253.84;;;8.39;83.93
70909;BME280;58554;52.006;5.926;2024-02-21T01:14:07;101252.88;;;8.42;84.09
70909;BME280;58554;52.006;5.926;2024-02-21T01:16:34;101242.34;;;8.42;83.87
70909;BME280;58554;52.006;5.926;2024-02-21T01:19:00;101228.22;;;8.43;83.90
70909;BME280;58554;52.006;5.926;2024-02-21T01:21:27;101252.81;;;8.43;83.85
70909;BME280;58554;52.006;5.926;2024-02-21T01:23:53;101245.84;;;8.42;83.96
70909;BME280;58554;52.006;5.926;2024-02-21T01:26:23;101245.84;;;8.42;83.91
70909;BME280;58554;52.006;5.926;2024-02-21T01:28:49;101254.53;;;8.44;83.99
70909;BME280;58554;52.006;5.926;2024-02-21T01:31:16;101257.16;;;8.44;84.04
70909;BME280;58554;52.006;5.926;2024-02-21T01:33:45;101253.75;;;8.42;84.09
70909;BME280;58554;52.006;5.926;2024-02-21T01:36:11;101262.44;;;8.44;84.08
70909;BME280;58554;52.006;5.926;2024-02-21T01:38:38;101265.69;;;8.51;84.05
70909;BME280;58554;52.006;5.926;2024-02-21T01:41:04;101253.25;;;8.55;83.93
70909;BME280;58554;52.006;5.926;2024-02-21T01:43:34;101265.38;;;8.59;83.85
70909;BME280;58554;52.006;5.926;2024-02-21T01:46:00;101253.00;;;8.61;83.80
70909;BME280;58554;52.006;5.926;2024-02-21T01:48:27;101249.38;;;8.63;83.68
70909;BME280;58554;52.006;5.926;2024-02-21T01:50:54;101247.47;;;8.67;83.83
70909;BME280;58554;52.006;5.926;2024-02-21T01:53:27;101238.63;;;8.68;83.73
70909;BME280;58554;52.006;5.926;2024-02-21T01:55:56;101237.72;;;8.69;83.82
70909;BME280;58554;52.006;5.926;2024-02-21T01:58:23;101228.88;;;8.70;83.84
70909;BME280;58554;52.006;5.926;2024-02-21T02:00:57;101222.59;;;8.72;83.61
70909;BME280;58554;52.006;5.926;2024-02-21T02:03:23;101210.09;;;8.78;83.71
70909;BME280;58554;52.006;5.926;2024-02-21T02:05:50;101210.84;;;8.81;83.59
70909;BME280;58554;52.006;5.926;2024-02-21T02:08:19;101214.31;;;8.82;83.36
70909;BME280;58554;52.006;5.926;2024-02-21T02:10:46;101209.16;;;8.79;83.51
70909;BME280;58554;52.006;5.926;2024-02-21T02:13:12;101196.91;;;8.78;83.50
70909;BME280;58554;52.006;5.926;2024-02-21T02:15:40;101201.34;;;8.77;83.40
70909;BME280;58554;52.006;5.926;2024-02-21T02:18:10;101194.28;;;8.78;83.46
70909;BME280;58554;52.006;5.926;2024-02-21T02:20:38;101198.75;;;8.76;83.44
70909;BME280;58554;52.006;5.926;2024-02-21T02:23:07;101191.75;;;8.75;83.49
70909;BME280;58554;52.006;5.926;2024-02-21T02:25:39;101182.09;;;8.75;83.51
70909;BME280;58554;52.006;5.926;2024-02-21T02:28:06;101179.44;;;8.75;83.41
70909;BME280;58554;52.006;5.926;2024-02-21T02:30:34;101176.94;;;8.72;83.46
70909;BME280;58554;52.006;5.926;2024-02-21T02:33:00;101174.34;;;8.70;83.59
70909;BME280;58554;52.006;5.926;2024-02-21T02:35:27;101169.16;;;8.69;83.56
70909;BME280;58554;52.006;5.926;2024-02-21T02:37:53;101166.66;;;8.66;83.56
70909;BME280;58554;52.006;5.926;2024-02-21T02:40:20;101168.53;;;8.62;83.47
70909;BME280;58554;52.006;5.926;2024-02-21T02:42:49;101164.47;;;8.55;83.46
70909;BME280;58554;52.006;5.926;2024-02-21T02:45:16;101159.31;;;8.52;83.54
70909;BME280;58554;52.006;5.926;2024-02-21T02:47:44;101157.56;;;8.52;83.91
70909;BME280;58554;52.006;5.926;2024-02-21T02:50:12;101154.03;;;8.52;83.65
70909;BME280;58554;52.006;5.926;2024-02-21T02:52:39;101155.03;;;8.49;83.79
70909;BME280;58554;52.006;5.926;2024-02-21T02:55:06;101159.50;;;8.47;83.83
70909;BME280;58554;52.006;5.926;2024-02-21T02:57:33;101165.78;;;8.45;83.80
70909;BME280;58554;52.006;5.926;2024-02-21T03:00:03;101156.19;;;8.44;83.89
70909;BME280;58554;52.006;5.926;2024-02-21T03:02:30;101156.34;;;8.39;83.86
70909;BME280;58554;52.006;5.926;2024-02-21T03:04:57;101155.56;;;8.37;83.87
70909;BME280;58554;52.006;5.926;2024-02-21T03:07:24;101146.94;;;8.34;83.88
70909;BME280;58554;52.006;5.926;2024-02-21T03:09:51;101144.38;;;8.32;84.06
70909;BME280;58554;52.006;5.926;2024-02-21T03:12:18;101150.69;;;8.28;84.00
70909;BME280;58554;52.006;5.926;2024-02-21T03:14:44;101153.25;;;8.29;83.81
70909;BME280;58554;52.006;5.926;2024-02-21T03:17:13;101141.94;;;8.27;83.94
70909;BME280;58554;52.006;5.926;2024-02-21T03:19:40;101139.22;;;8.29;84.01
70909;BME280;58554;52.006;5.926;2024-02-21T03:22:06;101139.22;;;8.29;83.96
70909;BME280;58554;52.006;5.926;2024-02-21T03:24:33;101138.31;;;8.30;84.01
70909;BME280;58554;52.006;5.926;2024-02-21T03:27:00;101135.59;;;8.31;83.95
70909;BME280;58554;52.006;5.926;2024-02-21T03:29:26;101145.22;;;8.32;83.89
70909;BME280;58554;52.006;5.926;2024-02-21T03:31:53;101140.88;;;8.31;84.10
70909;BME280;58554;52.006;5.926;2024-02-21T03:34:22;101143.50;;;8.31;83.93
70909;BME280;58554;52.006;5.926;2024-02-21T03:36:48;101135.59;;;8.31;84.04
70909;BME280;58554;52.006;5.926;2024-02-21T03:39:15;101137.31;;;8.32;84.16
70909;BME280;58554;52.006;5.926;2024-02-21T03:41:41;101132.84;;;8.35;84.07
70909;BME280;58554;52.006;5.926;2024-02-21T03:44:08;101125.72;;;8.37;83.91
70909;BME280;58554;52.006;5.926;2024-02-21T03:46:34;101122.22;;;8.36;83.92
70909;BME280;58554;52.006;5.926;2024-02-21T03:49:01;101115.13;;;8.38;84.11
70909;BME280;58554;52.006;5.926;2024-02-21T03:51:30;101107.94;;;8.42;83.88
70909;BME280;58554;52.006;5.926;2024-02-21T03:53:57;101110.59;;;8.42;83.87
70909;BME280;58554;52.006;5.926;2024-02-21T03:56:23;101110.66;;;8.40;84.07
70909;BME280;58554;52.006;5.926;2024-02-21T03:58:50;101111.50;;;8.41;83.79
70909;BME280;58554;52.006;5.926;2024-02-21T04:01:16;101107.06;;;8.41;83.91
70909;BME280;58554;52.006;5.926;2024-02-21T04:03:43;101105.16;;;8.45;83.87
70909;BME280;58554;52.006;5.926;2024-02-21T04:06:10;101097.25;;;8.45;83.73
70909;BME280;58554;52.006;5.926;2024-02-21T04:08:39;101108.81;;;8.42;83.68
70909;BME280;58554;52.006;5.926;2024-02-21T04:11:05;101100.16;;;8.39;83.98
70909;BME280;58554;52.006;5.926;2024-02-21T04:13:32;101096.94;;;8.32;84.07
70909;BME280;58554;52.006;5.926;2024-02-21T04:15:58;101106.78;;;8.27;84.14
70909;BME280;58554;52.006;5.926;2024-02-21T04:18:25;101104.25;;;8.25;83.98
70909;BME280;58554;52.006;5.926;2024-02-21T04:20:51;101104.38;;;8.22;84.10
70909;BME280;58554;52.006;5.926;2024-02-21T04:23:18;101105.31;;;8.21;84.14
70909;BME280;58554;52.006;5.926;2024-02-21T04:25:47;101099.25;;;8.19;84.21
70909;BME280;58554;52.006;5.926;2024-02-21T04:28:13;101098.25;;;8.22;84.17
70909;BME280;58554;52.006;5.926;2024-02-21T04:30:40;101095.41;;;8.26;84.32
70909;BME280;58554;52.006;5.926;2024-02-21T04:33:07;101087.56;;;8.25;84.26
70909;BME280;58554;52.006;5.926;2024-02-21T04:35:33;101086.72;;;8.24;83.97
70909;BME280;58554;52.006;5.926;2024-02-21T04:38:02;101095.56;;;8.23;83.98
70909;BME280;58554;52.006;5.926;2024-02-21T04:40:29;101099.94;;;8.23;83.93
70909;BME280;58554;52.006;5.926;2024-02-21T04:42:58;101091.19;;;8.22;84.03
70909;BME280;58554;52.006;5.926;2024-02-21T04:45:24;101081.59;;;8.21;84.12
70909;BME280;58554;52.006;5.926;2024-02-21T04:47:51;101082.44;;;8.22;84.21
70909;BME280;58554;52.006;5.926;2024-02-21T04:50:17;101080.81;;;8.19;83.95
70909;BME280;58554;52.006;5.926;2024-02-21T04:52:44;101079.94;;;8.19;84.08
70909;BME280;58554;52.006;5.926;2024-02-21T04:55:10;101084.34;;;8.18;84.07
70909;BME280;58554;52.006;5.926;2024-02-21T04:57:37;101079.06;;;8.18;84.07
70909;BME280;58554;52.006;5.926;2024-02-21T05:00:07;101065.69;;;8.23;84.08
70909;BME280;58554;52.006;5.926;2024-02-21T05:02:34;101063.59;;;8.31;83.96
70909;BME280;58554;52.006;5.926;2024-02-21T05:05:01;101060.91;;;8.32;83.73
70909;BME280;58554;52.006;5.926;2024-02-21T05:07:27;101056.38;;;8.36;83.96
70909;BME280;58554;52.006;5.926;2024-02-21T05:09:54;101054.47;;;8.40;83.84
70909;BME280;58554;52.006;5.926;2024-02-21T05:12:20;101052.53;;;8.43;83.67
70909;BME280;58554;52.006;5.926;2024-02-21T05:14:47;101048.81;;;8.47;83.75
70909;BME280;58554;52.006;5.926;2024-02-21T05:17:16;101049.56;;;8.51;83.72
70909;BME280;58554;52.006;5.926;2024-02-21T05:19:43;101048.63;;;8.52;83.56
70909;BME280;58554;52.006;5.926;2024-02-21T05:22:09;101049.50;;;8.52;83.49
70909;BME280;58554;52.006;5.926;2024-02-21T05:24:36;101045.03;;;8.55;83.53
70909;BME280;58554;52.006;5.926;2024-02-21T05:27:02;101047.50;;;8.58;83.51
70909;BME280;58554;52.006;5.926;2024-02-21T05:29:29;101053.72;;;8.57;83.34
70909;BME280;58554;52.006;5.926;2024-02-21T05:31:56;101045.03;;;8.55;83.58
70909;BME280;58554;52.006;5.926;2024-02-21T05:34:29;101036.31;;;8.52;83.59
70909;BME280;58554;52.006;5.926;2024-02-21T05:36:55;101027.63;;;8.50;83.32
70909;BME280;58554;52.006;5.926;2024-02-21T05:39:22;101022.41;;;8.49;83.30
70909;BME280;58554;52.006;5.926;2024-02-21T05:41:49;101020.78;;;8.46;83.16
70909;BME280;58554;52.006;5.926;2024-02-21T05:44:15;101027.06;;;8.44;83.31
70909;BME280;58554;52.006;5.926;2024-02-21T05:46:42;101021.84;;;8.42;83.24
70909;BME280;58554;52.006;5.926;2024-02-21T05:49:09;101015.84;;;8.39;83.26
70909;BME280;58554;52.006;5.926;2024-02-21T05:51:38;101003.50;;;8.39;83.20
70909;BME280;58554;52.006;5.926;2024-02-21T05:54:04;100998.25;;;8.39;83.35
70909;BME280;58554;52.006;5.926;2024-02-21T05:56:31;100985.94;;;8.40;83.38
70909;BME280;58554;52.006;5.926;2024-02-21T05:58:57;100994.75;;;8.39;83.38
70909;BME280;58554;52.006;5.926;2024-02-21T06:01:25;100985.94;;;8.40;83.44
70909;BME280;58554;52.006;5.926;2024-02-21T06:03:51;100978.81;;;8.42;83.58
70909;BME280;58554;52.006;5.926;2024-02-21T06:06:18;100983.09;;;8.44;83.38
70909;BME280;58554;52.006;5.926;2024-02-21T06:08:47;100977.78;;;8.46;83.28
70909;BME280;58554;52.006;5.926;2024-02-21T06:11:13;100980.41;;;8.46;83.18
70909;BME280;58554;52.006;5.926;2024-02-21T06:13:40;100970.72;;;8.46;83.11
70909;BME280;58554;52.006;5.926;2024-02-21T06:16:07;100974.97;;;8.49;83.16
70909;BME280;58554;52.006;5.926;2024-02-21T06:18:36;100967.84;;;8.51;83.34
70909;BME280;58554;52.006;5.926;2024-02-21T06:21:03;100970.34;;;8.54;83.27
70909;BME280;58554;52.006;5.926;2024-02-21T06:23:29;100974.53;;;8.58;83.25
70909;BME280;58554;52.006;5.926;2024-02-21T06:25:59;100964.88;;;8.59;83.21
70909;BME280;58554;52.006;5.926;2024-02-21T06:28:25;100968.38;;;8.59;83.00
70909;BME280;58554;52.006;5.926;2024-02-21T06:30:52;100956.75;;;8.63;82.97
70909;BME280;58554;52.006;5.926;2024-02-21T06:33:18;100957.47;;;8.67;82.91
70909;BME280;58554;52.006;5.926;2024-02-21T06:35:45;100959.09;;;8.69;82.86
70909;BME280;58554;52.006;5.926;2024-02-21T06:38:11;100965.16;;;8.71;82.91
70909;BME280;58554;52.006;5.926;2024-02-21T06:40:38;100959.88;;;8.71;82.51
70909;BME280;58554;52.006;5.926;2024-02-21T06:43:07;100960.91;;;8.69;82.51
70909;BME280;58554;52.006;5.926;2024-02-21T06:45:33;100952.19;;;8.67;82.55
70909;BME280;58554;52.006;5.926;2024-02-21T06:48:00;100960.13;;;8.67;82.62
70909;BME280;58554;52.006;5.926;2024-02-21T06:50:28;100961.88;;;8.66;82.65
70909;BME280;58554;52.006;5.926;2024-02-21T06:52:54;100959.31;;;8.65;82.59
70909;BME280;58554;52.006;5.926;2024-02-21T06:55:21;100961.09;;;8.64;82.64
70909;BME280;58554;52.006;5.926;2024-02-21T06:57:47;100960.19;;;8.65;82.34
70909;BME280;58554;52.006;5.926;2024-02-21T07:00:18;100956.75;;;8.63;82.37
70909;BME280;58554;52.006;5.926;2024-02-21T07:02:45;100962.88;;;8.64;82.52
70909;BME280;58554;52.006;5.926;2024-02-21T07:05:11;100960.19;;;8.65;82.39
70909;BME280;58554;52.006;5.926;2024-02-21T07:07:38;100960.00;;;8.68;82.61
70909;BME280;58554;52.006;5.926;2024-02-21T07:10:05;100955.53;;;8.70;82.42
70909;BME280;58554;52.006;5.926;2024-02-21T07:12:32;100960.81;;;8.70;82.09
70909;BME280;58554;52.006;5.926;2024-02-21T07:14:58;100955.47;;;8.72;82.15
70909;BME280;58554;52.006;5.926;2024-02-21T07:17:27;100951.91;;;8.73;82.43
70909;BME280;58554;52.006;5.926;2024-02-21T07:19:54;100941.22;;;8.76;82.53
70909;BME280;58554;52.006;5.926;2024-02-21T07:22:20;100939.38;;;8.78;82.12
70909;BME280;58554;52.006;5.926;2024-02-21T07:24:47;100932.41;;;8.77;82.14
70909;BME280;58554;52.006;5.926;2024-02-21T07:27:15;100942.06;;;8.77;81.99
70909;BME280;58554;52.006;5.926;2024-02-21T07:29:42;100940.31;;;8.77;82.31
70909;BME280;58554;52.006;5.926;2024-02-21T07:32:08;100931.38;;;8.80;82.15
70909;BME280;58554;52.006;5.926;2024-02-21T07:34:37;100927.69;;;8.84;82.17
70909;BME280;58554;52.006;5.926;2024-02-21T07:37:04;100928.53;;;8.84;81.94
70909;BME280;58554;52.006;5.926;2024-02-21T07:39:30;100926.84;;;8.83;82.02
70909;BME280;58554;52.006;5.926;2024-02-21T07:41:57;100929.47;;;8.83;81.95
70909;BME280;58554;52.006;5.926;2024-02-21T07:44:23;100920.84;;;8.80;81.40
70909;BME280;58554;52.006;5.926;2024-02-21T07:46:50;100913.06;;;8.77;81.82
70909;BME280;58554;52.006;5.926;2024-02-21T07:49:16;100920.13;;;8.76;81.74
70909;BME280;58554;52.006;5.926;2024-02-21T07:51:45;100909.50;;;8.78;82.08
70909;BME280;58554;52.006;5.926;2024-02-21T07:54:12;100901.59;;;8.78;81.95
70909;BME280;58554;52.006;5.926;2024-02-21T07:56:38;100902.31;;;8.81;81.76
70909;BME280;58554;52.006;5.926;2024-02-21T07:59:05;100887.28;;;8.83;81.60
70909;BME280;58554;52.006;5.926;2024-02-21T08:01:31;100874.94;;;8.84;81.77
70909;BME280;58554;52.006;5.926;2024-02-21T08:04:25;100860.75;;;8.86;81.93
70909;BME280;58554;52.006;5.926;2024-02-21T08:06:57;100867.66;;;8.89;81.54
70909;BME280;58554;52.006;5.926;2024-02-21T08:09:23;100856.25;;;8.88;81.25
70909;BME280;58554;52.006;5.926;2024-02-21T08:11:50;100864.09;;;8.90;81.55
70909;BME280;58554;52.006;5.926;2024-02-21T08:14:17;100854.34;;;8.92;81.67
70909;BME280;58554;52.006;5.926;2024-02-21T08:16:43;100851.59;;;8.93;81.82
70909;BME280;58554;52.006;5.926;2024-02-21T08:19:10;100859.22;;;9.00;81.47
70909;BME280;58554;52.006;5.926;2024-02-21T08:21:37;100859.97;;;9.02;81.36
70909;BME280;58554;52.006;5.926;2024-02-21T08:24:06;100863.50;;;9.02;81.46
70909;BME280;58554;52.006;5.926;2024-02-21T08:26:33;100858.13;;;9.04;81.33
70909;BME280;58554;52.006;5.926;2024-02-21T08:29:00;100850.22;;;9.04;81.07
70909;BME280;58554;52.006;5.926;2024-02-21T08:31:27;100839.06;;;8.99;81.10
70909;BME280;58554;52.006;5.926;2024-02-21T08:33:53;100843.47;;;8.98;81.12
70909;BME280;58554;52.006;5.926;2024-02-21T08:36:20;100836.53;;;8.96;81.31
70909;BME280;58554;52.006;5.926;2024-02-21T08:38:46;100838.41;;;8.93;81.25
70909;BME280;58554;52.006;5.926;2024-02-21T08:41:15;100835.94;;;8.90;81.11
70909;BME280;58554;52.006;5.926;2024-02-21T08:43:42;100832.53;;;8.88;81.30
70909;BME280;58554;52.006;5.926;2024-02-21T08:46:08;100830.81;;;8.87;81.16
70909;BME280;58554;52.006;5.926;2024-02-21T08:48:35;100821.19;;;8.86;81.09
70909;BME280;58554;52.006;5.926;2024-02-21T08:51:02;100832.81;;;8.82;80.93
70909;BME280;58554;52.006;5.926;2024-02-21T08:53:28;100820.66;;;8.80;81.08
70909;BME280;58554;52.006;5.926;2024-02-21T08:55:55;100826.75;;;8.80;81.07
70909;BME280;58554;52.006;5.926;2024-02-21T08:58:24;100805.59;;;8.82;81.55
70909;BME280;58554;52.006;5.926;2024-02-21T09:00:51;100801.97;;;8.84;81.38
70909;BME280;58554;52.006;5.926;2024-02-21T09:03:17;100799.31;;;8.84;81.29
70909;BME280;58554;52.006;5.926;2024-02-21T09:05:44;100786.97;;;8.85;81.13
70909;BME280;58554;52.006;5.926;2024-02-21T09:08:10;100791.41;;;8.84;80.88
70909;BME280;58554;52.006;5.926;2024-02-21T09:10:37;100796.69;;;8.84;81.19
70909;BME280;58554;52.006;5.926;2024-02-21T09:13:03;100790.56;;;8.84;80.93
70909;BME280;58554;52.006;5.926;2024-02-21T09:15:35;100787.81;;;8.85;81.02
70909;BME280;58554;52.006;5.926;2024-02-21T09:18:02;100795.66;;;8.87;81.29
70909;BME280;58554;52.006;5.926;2024-02-21T09:20:29;100797.41;;;8.88;80.83
70909;BME280;58554;52.006;5.926;2024-02-21T09:22:56;100793.09;;;8.85;80.56
70909;BME280;58554;52.006;5.926;2024-02-21T09:25:23;100785.19;;;8.85;80.70
70909;BME280;58554;52.006;5.926;2024-02-21T09:27:49;100792.25;;;8.85;80.78
70909;BME280;58554;52.006;5.926;2024-02-21T09:30:16;100783.44;;;8.86;80.59
70909;BME280;58554;52.006;5.926;2024-02-21T09:32:45;100789.38;;;8.89;80.94
70909;BME280;58554;52.006;5.926;2024-02-21T09:35:12;100782.97;;;8.95;81.07
70909;BME280;58554;52.006;5.926;2024-02-21T09:37:39;100778.41;;;8.99;80.85
70909;BME280;58554;52.006;5.926;2024-02-21T09:40:09;100783.50;;;9.02;80.64
70909;BME280;58554;52.006;5.926;2024-02-21T09:42:37;100763.28;;;9.02;80.55
70909;BME280;58554;52.006;5.926;2024-02-21T09:45:09;100769.22;;;9.06;80.63
70909;BME280;58554;52.006;5.926;2024-02-21T09:47:57;100760.00;;;9.15;81.00
70909;BME280;58554;52.006;5.926;2024-02-21T09:50:43;100756.81;;;9.25;80.68
70909;BME280;58554;52.006;5.926;2024-02-21T09:53:12;100748.72;;;9.28;80.65
70909;BME280;58554;52.006;5.926;2024-02-21T09:55:40;100748.59;;;9.31;80.23
70909;BME280;58554;52.006;5.926;2024-02-21T09:58:09;100736.19;;;9.33;80.36
70909;BME280;58554;52.006;5.926;2024-02-21T10:00:36;100737.88;;;9.35;80.28
70909;BME280;58554;52.006;5.926;2024-02-21T10:03:05;100729.81;;;9.38;79.75
70909;BME280;58554;52.006;5.926;2024-02-21T10:05:32;100723.00;;;9.33;79.47
70909;BME280;58554;52.006;5.926;2024-02-21T10:08:00;100722.13;;;9.33;79.89
70909;BME280;58554;52.006;5.926;2024-02-21T10:10:26;100717.59;;;9.35;79.76
70909;BME280;58554;52.006;5.926;2024-02-21T10:12:53;100707.06;;;9.35;79.92
70909;BME280;58554;52.006;5.926;2024-02-21T10:15:20;100697.97;;;9.41;80.29
70909;BME280;58554;52.006;5.926;2024-02-21T10:17:48;100697.63;;;9.47;79.82
70909;BME280;58554;52.006;5.926;2024-02-21T10:20:17;100691.19;;;9.52;79.83
70909;BME280;58554;52.006;5.926;2024-02-21T10:22:44;100691.00;;;9.56;79.68
70909;BME280;58554;52.006;5.926;2024-02-21T10:25:11;100674.91;;;9.60;79.78
70909;BME280;58554;52.006;5.926;2024-02-21T10:27:39;100672.88;;;9.65;79.94
70909;BME280;58554;52.006;5.926;2024-02-21T10:30:08;100670.94;;;9.69;79.57
70909;BME280;58554;52.006;5.926;2024-02-21T10:32:49;100669.97;;;9.70;79.29
70909;BME280;58554;52.006;5.926;2024-02-21T10:35:25;100661.56;;;9.63;79.11
70909;BME280;58554;52.006;5.926;2024-02-21T10:37:53;100661.81;;;9.59;79.16
70909;BME280;58554;52.006;5.926;2024-02-21T10:40:19;100651.47;;;9.54;79.41
70909;BME280;58554;52.006;5.926;2024-02-21T10:42:47;100650.06;;;9.48;79.32
70909;BME280;58554;52.006;5.926;2024-02-21T10:45:17;100635.59;;;9.40;79.62
70909;BME280;58554;52.006;5.926;2024-02-21T10:47:47;100636.50;;;9.39;79.99
70909;BME280;58554;52.006;5.926;2024-02-21T10:50:25;100633.00;;;9.38;79.54
70909;BME280;58554;52.006;5.926;2024-02-21T10:53:04;100629.53;;;9.38;80.44
70909;BME280;58554;52.006;5.926;2024-02-21T10:55:38;100626.97;;;9.36;80.08
70909;BME280;58554;52.006;5.926;2024-02-21T10:58:14;100614.09;;;9.30;80.10
70909;BME280;58554;52.006;5.926;2024-02-21T11:00:40;100618.66;;;9.26;80.55
70909;BME280;58554;52.006;5.926;2024-02-21T11:03:08;100608.44;;;9.20;80.68
70909;BME280;58554;52.006;5.926;2024-02-21T11:05:38;100603.34;;;9.17;80.43
70909;BME280;58554;52.006;5.926;2024-02-21T11:08:06;100599.84;;;9.17;80.95
70909;BME280;58554;52.006;5.926;2024-02-21T11:10:36;100591.75;;;9.20;80.96
70909;BME280;58554;52.006;5.926;2024-02-21T11:13:07;100576.63;;;9.23;81.10
70909;BME280;58554;52.006;5.926;2024-02-21T11:15:33;100561.72;;;9.22;80.96
70909;BME280;58554;52.006;5.926;2024-02-21T11:18:00;100553.81;;;9.22;81.08
70909;BME280;58554;52.006;5.926;2024-02-21T11:20:38;100529.91;;;9.25;81.04
70909;BME280;58554;52.006;5.926;2024-02-21T11:23:05;100520.91;;;9.29;80.98
70909;BME280;58554;52.006;5.926;2024-02-21T11:25:31;100513.66;;;9.33;81.02
70909;BME280;58554;52.006;5.926;2024-02-21T11:28:02;100524.91;;;9.37;80.64
70909;BME280;58554;52.006;5.926;2024-02-21T11:30:30;100524.81;;;9.38;80.70
70909;BME280;58554;52.006;5.926;2024-02-21T11:33:02;100536.13;;;9.40;80.40
70909;BME280;58554;52.006;5.926;2024-02-21T11:35:32;100538.84;;;9.39;80.27
70909;BME280;58554;52.006;5.926;2024-02-21T11:38:12;100547.81;;;9.36;80.29
70909;BME280;58554;52.006;5.926;2024-02-21T11:40:39;100545.25;;;9.35;80.34
70909;BME280;58554;52.006;5.926;2024-02-21T11:43:06;100542.88;;;9.30;80.26
70909;BME280;58554;52.006;5.926;2024-02-21T11:45:33;100534.75;;;9.33;80.62
70909;BME280;58554;52.006;5.926;2024-02-21T11:47:59;100521.56;;;9.33;80.27
70909;BME280;58554;52.006;5.926;2024-02-21T11:50:26;100507.72;;;9.29;80.31
70909;BME280;58554;52.006;5.926;2024-02-21T11:52:54;100505.97;;;9.28;80.11
70909;BME280;58554;52.006;5.926;2024-02-21T11:55:24;100502.44;;;9.29;80.42
70909;BME280;58554;52.006;5.926;2024-02-21T11:57:51;100513.03;;;9.28;80.18
70909;BME280;58554;52.006;5.926;2024-02-21T12:00:18;100499.63;;;9.32;80.07
70909;BME280;58554;52.006;5.926;2024-02-21T12:02:46;100493.41;;;9.33;80.09
70909;BME280;58554;52.006;5.926;2024-02-21T12:05:14;100493.22;;;9.37;79.61
70909;BME280;58554;52.006;5.926;2024-02-21T12:07:41;100492.19;;;9.39;79.76
70909;BME280;58554;52.006;5.926;2024-02-21T12:10:08;100493.66;;;9.45;80.03
70909;BME280;58554;52.006;5.926;2024-02-21T12:12:38;100482.66;;;9.52;79.79
70909;BME280;58554;52.006;5.926;2024-02-21T12:15:07;100471.06;;;9.55;79.80
70909;BME280;58554;52.006;5.926;2024-02-21T12:17:34;100464.59;;;9.61;79.54
70909;BME280;58554;52.006;5.926;2024-02-21T12:20:06;100457.25;;;9.66;79.77
70909;BME280;58554;52.006;5.926;2024-02-21T12:22:33;100450.56;;;9.74;79.33
70909;BME280;58554;52.006;5.926;2024-02-21T12:24:59;100416.63;;;9.83;79.58
70909;BME280;58554;52.006;5.926;2024-02-21T12:27:30;100397.50;;;9.93;79.39
70909;BME280;58554;52.006;5.926;2024-02-21T12:29:59;100370.72;;;10.00;79.16
70909;BME280;58554;52.006;5.926;2024-02-21T12:32:26;100361.56;;;10.05;79.00
70909;BME280;58554;52.006;5.926;2024-02-21T12:34:52;100369.19;;;10.10;78.93
70909;BME280;58554;52.006;5.926;2024-02-21T12:37:19;100357.50;;;10.14;78.58
70909;BME280;58554;52.006;5.926;2024-02-21T12:39:45;100358.38;;;10.14;78.29
70909;BME280;58554;52.006;5.926;2024-02-21T12:42:12;100349.50;;;10.16;78.42
70909;BME280;58554;52.006;5.926;2024-02-21T12:44:38;100357.13;;;10.20;78.60
70909;BME280;58554;52.006;5.926;2024-02-21T12:47:08;100332.97;;;10.26;78.12
70909;BME280;58554;52.006;5.926;2024-02-21T12:49:34;100324.84;;;10.29;77.92
70909;BME280;58554;52.006;5.926;2024-02-21T12:52:01;100323.91;;;10.30;78.23
70909;BME280;58554;52.006;5.926;2024-02-21T12:54:27;100318.59;;;10.30;77.71
70909;BME280;58554;52.006;5.926;2024-02-21T12:56:54;100317.69;;;10.31;77.71
70909;BME280;58554;52.006;5.926;2024-02-21T12:59:20;100312.56;;;10.28;77.29
70909;BME280;58554;52.006;5.926;2024-02-21T13:01:47;100291.63;;;10.25;77.31